Time;durP1;ratioP1;P1;durP2;ratioP2;P2;SDS_P1;SDS_P2;PMS_P1;PMS_P2;Temp;Humidity;BMP_temperature;BMP_pressure;BME280_temperature;BME280_humidity;BME280_pressure;Samples;Min_cycle;Max_cycle;Signal;HPM_P1;HPM_P2
2024/01/13 00:00:17;;;;;;;6.60;4.80;;;;;;;;;;43536;275;3031500;-33
2024/01/13 00:02:42;;;;;;;6.30;4.70;;;;;;;;;;44272;274;3031943;-33
2024/01/13 00:04:29;;;;;;;5.80;4.60;;;;;;;;;;43976;270;3031292;-33
2024/01/13 00:06:15;;;;;;;6.30;4.70;;;;;;;;;;43568;279;3037556;-33
2024/01/13 00:08:06;;;;;;;6.10;4.70;;;;;;;;;;43550;278;3031940;-33
2024/01/13 00:09:53;;;;;;;6.60;4.50;;;;;;;;;;43935;279;3031615;-33
2024/01/13 00:11:38;;;;;;;8.10;4.50;;;;;;;;;;43545;267;3032321;-32
2024/01/13 00:13:24;;;;;;;6.20;4.30;;;;;;;;;;43536;278;3031180;-33
2024/01/13 00:15:11;;;;;;;6.40;4.60;;;;;;;;;;43534;279;3031775;-33
2024/01/13 00:16:55;;;;;;;6.30;4.40;;;;;;;;;;43911;275;3031739;-33
2024/01/13 00:18:40;;;;;;;6.50;4.40;;;;;;;;;;43542;278;3031289;-33
2024/01/13 00:20:27;;;;;;;6.40;4.50;;;;;;;;;;43557;287;3032292;-33
2024/01/13 00:22:15;;;;;;;6.90;4.50;;;;;;;;;;43547;279;3031366;-33
2024/01/13 00:24:01;;;;;;;6.30;4.40;;;;;;;;;;43540;270;3031419;-33
2024/01/13 00:25:47;;;;;;;5.90;4.20;;;;;;;;;;43503;279;3031388;-33
2024/01/13 00:27:35;;;;;;;6.70;4.70;;;;;;;;;;43550;279;3031089;-33
2024/01/13 00:29:22;;;;;;;6.00;4.40;;;;;;;;;;43534;278;3032202;-33
2024/01/13 00:31:09;;;;;;;5.70;4.20;;;;;;;;;;43551;270;3031597;-33
2024/01/13 00:32:53;;;;;;;6.40;4.20;;;;;;;;;;43550;278;3031020;-33
2024/01/13 00:34:41;;;;;;;6.00;4.20;;;;;;;;;;43539;279;3032573;-33
2024/01/13 00:36:29;;;;;;;5.80;4.10;;;;;;;;;;43497;270;3032050;-33
2024/01/13 00:38:14;;;;;;;6.40;4.40;;;;;;;;;;43557;278;3031025;-33
2024/01/13 00:40:16;;;;;;;6.50;4.20;;;;;;;;;;43550;278;3031844;-33
2024/01/13 00:42:01;;;;;;;6.00;4.30;;;;;;;;;;43525;267;3031121;-33
2024/01/13 00:43:47;;;;;;;5.50;3.70;;;;;;;;;;43564;270;3031295;-33
2024/01/13 00:45:34;;;;;;;6.00;4.10;;;;;;;;;;43520;279;3031346;-33
2024/01/13 00:47:22;;;;;;;5.80;4.30;;;;;;;;;;43537;267;3038428;-33
2024/01/13 00:49:08;;;;;;;6.00;4.10;;;;;;;;;;43523;278;3032847;-33
2024/01/13 00:50:53;;;;;;;6.10;4.10;;;;;;;;;;43545;278;3031301;-33
2024/01/13 00:52:38;;;;;;;6.40;4.30;;;;;;;;;;43565;270;3031455;-33
2024/01/13 00:54:23;;;;;;;6.30;4.10;;;;;;;;;;43568;279;3031032;-33
2024/01/13 00:56:12;;;;;;;5.90;4.00;;;;;;;;;;43533;270;3031805;-33
2024/01/13 00:57:57;;;;;;;5.60;4.00;;;;;;;;;;43573;270;3031469;-33
2024/01/13 00:59:44;;;;;;;5.60;4.10;;;;;;;;;;43565;270;3031600;-33
2024/01/13 01:01:30;;;;;;;5.80;3.90;;;;;;;;;;43574;278;3032244;-33
2024/01/13 01:03:15;;;;;;;6.10;3.90;;;;;;;;;;43571;279;3031683;-33
2024/01/13 01:05:02;;;;;;;5.20;3.50;;;;;;;;;;43572;279;3031663;-33
2024/01/13 01:06:47;;;;;;;5.50;4.00;;;;;;;;;;43534;275;3031131;-33
2024/01/13 01:08:33;;;;;;;5.70;4.00;;;;;;;;;;43455;268;3031135;-33
2024/01/13 01:10:24;;;;;;;5.60;3.90;;;;;;;;;;43575;270;3032701;-33
2024/01/13 01:12:09;;;;;;;6.10;4.00;;;;;;;;;;43568;267;3031702;-33
2024/01/13 01:13:55;;;;;;;6.10;3.70;;;;;;;;;;44170;272;3032498;-33
2024/01/13 01:15:40;;;;;;;6.00;3.80;;;;;;;;;;43673;272;3031490;-33
2024/01/13 01:17:27;;;;;;;5.40;3.60;;;;;;;;;;43518;270;3031856;-33
2024/01/13 01:19:12;;;;;;;5.70;3.70;;;;;;;;;;43562;279;3032092;-32
2024/01/13 01:20:56;;;;;;;5.70;3.60;;;;;;;;;;43556;279;3031916;-33
2024/01/13 01:22:43;;;;;;;6.10;3.70;;;;;;;;;;43561;279;3031618;-33
2024/01/13 01:24:28;;;;;;;5.20;3.20;;;;;;;;;;43583;267;3031715;-33
2024/01/13 01:26:14;;;;;;;5.80;3.70;;;;;;;;;;43542;279;3031915;-33
2024/01/13 01:28:02;;;;;;;5.70;3.60;;;;;;;;;;43557;270;3038007;-33
2024/01/13 01:29:46;;;;;;;6.00;3.60;;;;;;;;;;43554;267;3030906;-33
2024/01/13 01:31:31;;;;;;;5.70;3.60;;;;;;;;;;43577;278;3033654;-33
2024/01/13 01:33:17;;;;;;;5.70;3.50;;;;;;;;;;43568;279;3031754;-32
2024/01/13 01:35:02;;;;;;;5.60;3.70;;;;;;;;;;43553;278;3032065;-32
2024/01/13 01:36:47;;;;;;;5.50;3.50;;;;;;;;;;43534;275;3031249;-33
2024/01/13 01:38:34;;;;;;;5.50;3.70;;;;;;;;;;43565;275;3037394;-33
2024/01/13 01:40:33;;;;;;;5.90;3.50;;;;;;;;;;43554;275;3031732;-33
2024/01/13 01:42:17;;;;;;;5.20;3.30;;;;;;;;;;43600;267;3031350;-33
2024/01/13 01:44:06;;;;;;;5.00;3.20;;;;;;;;;;43562;279;3031365;-33
2024/01/13 01:45:52;;;;;;;5.60;3.40;;;;;;;;;;43568;270;3031910;-33
2024/01/13 01:47:38;;;;;;;5.40;3.50;;;;;;;;;;43530;267;3031710;-33
2024/01/13 01:49:25;;;;;;;5.20;3.30;;;;;;;;;;43560;279;3031346;-33
2024/01/13 01:51:12;;;;;;;5.00;3.30;;;;;;;;;;43586;275;3031985;-33
2024/01/13 01:53:00;;;;;;;5.90;3.30;;;;;;;;;;43589;278;3032417;-33
2024/01/13 01:54:46;;;;;;;5.30;3.30;;;;;;;;;;43572;275;3031066;-33
2024/01/13 01:56:34;;;;;;;5.80;3.20;;;;;;;;;;43548;270;3032059;-33
2024/01/13 01:58:21;;;;;;;5.80;3.30;;;;;;;;;;43524;267;3031669;-33
2024/01/13 02:00:18;;;;;;;5.40;3.30;;;;;;;;;;43561;270;3031596;-33
2024/01/13 02:02:05;;;;;;;5.20;3.10;;;;;;;;;;43738;279;3031605;-33
2024/01/13 02:03:55;;;;;;;5.10;2.90;;;;;;;;;;43520;279;3032070;-33
2024/01/13 02:05:41;;;;;;;4.70;3.00;;;;;;;;;;43462;272;3031417;-33
2024/01/13 02:07:29;;;;;;;5.70;3.20;;;;;;;;;;43486;272;3031661;-33
2024/01/13 02:09:18;;;;;;;7.30;3.30;;;;;;;;;;43469;268;3037064;-33
2024/01/13 02:11:06;;;;;;;5.40;3.40;;;;;;;;;;43504;279;3031373;-33
2024/01/13 02:12:52;;;;;;;5.70;3.10;;;;;;;;;;43479;271;3031599;-33
2024/01/13 02:14:38;;;;;;;6.80;3.30;;;;;;;;;;43497;279;3031472;-33
2024/01/13 02:16:25;;;;;;;5.80;3.30;;;;;;;;;;43476;272;3031802;-33
2024/01/13 02:18:11;;;;;;;6.30;3.20;;;;;;;;;;43447;279;3030837;-33
2024/01/13 02:20:15;;;;;;;8.60;3.90;;;;;;;;;;43488;271;3031591;-33
2024/01/13 02:22:00;;;;;;;5.80;3.10;;;;;;;;;;43832;279;3031161;-33
2024/01/13 02:23:45;;;;;;;7.10;3.10;;;;;;;;;;43504;279;3031627;-33
2024/01/13 02:25:30;;;;;;;6.70;3.10;;;;;;;;;;43501;271;3031650;-33
2024/01/13 02:27:18;;;;;;;6.10;3.30;;;;;;;;;;43475;279;3031194;-33
2024/01/13 02:29:05;;;;;;;6.00;3.10;;;;;;;;;;43454;271;3032142;-33
2024/01/13 02:30:50;;;;;;;5.90;3.00;;;;;;;;;;43476;279;3031039;-33
2024/01/13 02:32:35;;;;;;;6.30;3.20;;;;;;;;;;43460;279;3031606;-33
2024/01/13 02:34:21;;;;;;;5.30;3.10;;;;;;;;;;43847;268;3031169;-33
2024/01/13 02:36:07;;;;;;;6.00;3.00;;;;;;;;;;43495;279;3031219;-33
2024/01/13 02:37:52;;;;;;;5.90;3.00;;;;;;;;;;44144;272;3031168;-33
2024/01/13 02:39:36;;;;;;;6.20;3.00;;;;;;;;;;43709;276;3031805;-33
2024/01/13 02:41:25;;;;;;;5.60;3.00;;;;;;;;;;43474;268;3031625;-33
2024/01/13 02:43:12;;;;;;;5.20;2.90;;;;;;;;;;43457;276;3031748;-33
2024/01/13 02:44:56;;;;;;;5.80;2.90;;;;;;;;;;43444;279;3031431;-33
2024/01/13 02:46:43;;;;;;;5.20;2.80;;;;;;;;;;43471;268;3031387;-33
2024/01/13 02:48:30;;;;;;;5.40;2.90;;;;;;;;;;43475;279;3031685;-33
2024/01/13 02:50:25;;;;;;;5.30;3.00;;;;;;;;;;43448;279;3038608;-33
2024/01/13 02:52:10;;;;;;;4.90;2.70;;;;;;;;;;43456;279;3031326;-33
2024/01/13 02:53:56;;;;;;;4.70;2.80;;;;;;;;;;43481;271;3031233;-33
2024/01/13 02:55:42;;;;;;;5.10;2.60;;;;;;;;;;43517;275;3031620;-33
2024/01/13 02:57:28;;;;;;;5.70;3.10;;;;;;;;;;43472;279;3031215;-33
2024/01/13 02:59:14;;;;;;;5.50;2.80;;;;;;;;;;43436;268;3031348;-33
2024/01/13 03:00:59;;;;;;;5.60;2.80;;;;;;;;;;43451;272;3038051;-33
2024/01/13 03:02:44;;;;;;;5.20;2.70;;;;;;;;;;43475;279;3031343;-33
2024/01/13 03:04:31;;;;;;;5.40;2.90;;;;;;;;;;43476;281;3031775;-33
2024/01/13 03:06:15;;;;;;;5.30;2.80;;;;;;;;;;43477;279;3031759;-33
2024/01/13 03:08:04;;;;;;;5.60;2.90;;;;;;;;;;43473;272;3031372;-33
2024/01/13 03:09:49;;;;;;;4.90;2.80;;;;;;;;;;43663;271;3031969;-33
2024/01/13 03:11:35;;;;;;;5.20;2.80;;;;;;;;;;43475;268;3031067;-33
2024/01/13 03:13:20;;;;;;;5.00;2.60;;;;;;;;;;43565;271;3031870;-33
2024/01/13 03:15:10;;;;;;;4.90;2.60;;;;;;;;;;43475;279;3032129;-33
2024/01/13 03:16:55;;;;;;;5.50;2.60;;;;;;;;;;44224;275;3032520;-33
2024/01/13 03:18:39;;;;;;;4.60;2.60;;;;;;;;;;44186;276;3031158;-33
2024/01/13 03:20:26;;;;;;;4.50;2.40;;;;;;;;;;44136;275;3031879;-33
2024/01/13 03:22:11;;;;;;;4.70;2.50;;;;;;;;;;44213;268;3030826;-33
2024/01/13 03:23:55;;;;;;;4.70;2.40;;;;;;;;;;44176;275;3031535;-33
2024/01/13 03:25:40;;;;;;;5.10;2.60;;;;;;;;;;44053;275;3031505;-33
2024/01/13 03:27:25;;;;;;;4.90;2.40;;;;;;;;;;43467;268;3031054;-33
2024/01/13 03:29:11;;;;;;;4.20;2.40;;;;;;;;;;43475;279;3031270;-33
2024/01/13 03:31:00;;;;;;;4.90;2.70;;;;;;;;;;43448;279;3031312;-33
2024/01/13 03:32:48;;;;;;;4.30;2.50;;;;;;;;;;43478;279;3031167;-33
2024/01/13 03:34:32;;;;;;;5.60;2.60;;;;;;;;;;43486;279;3031318;-33
2024/01/13 03:36:19;;;;;;;4.90;2.70;;;;;;;;;;43470;279;3031457;-33
2024/01/13 03:38:07;;;;;;;4.40;2.40;;;;;;;;;;43931;275;3031116;-33
2024/01/13 03:39:53;;;;;;;5.90;2.80;;;;;;;;;;43483;268;3031514;-33
2024/01/13 03:41:41;;;;;;;4.70;2.40;;;;;;;;;;43472;271;3037712;-33
2024/01/13 03:43:25;;;;;;;4.60;2.30;;;;;;;;;;44165;268;3031533;-33
2024/01/13 03:45:12;;;;;;;4.60;2.50;;;;;;;;;;43491;271;3031116;-33
2024/01/13 03:46:57;;;;;;;4.60;2.60;;;;;;;;;;44129;272;3032009;-33
2024/01/13 03:48:42;;;;;;;5.10;2.50;;;;;;;;;;43866;268;3030849;-33
2024/01/13 03:50:28;;;;;;;4.60;2.40;;;;;;;;;;43468;279;3031225;-33
2024/01/13 03:52:16;;;;;;;4.50;2.40;;;;;;;;;;43464;279;3038515;-33
2024/01/13 03:54:02;;;;;;;4.40;2.50;;;;;;;;;;43455;279;3031060;-33
2024/01/13 03:55:51;;;;;;;4.60;2.60;;;;;;;;;;43470;279;3032095;-33
2024/01/13 03:57:36;;;;;;;4.80;2.30;;;;;;;;;;43516;271;3031195;-33
2024/01/13 03:59:32;;;;;;;4.40;2.60;;;;;;;;;;43496;268;3031913;-33
2024/01/13 04:01:18;;;;;;;4.90;2.60;;;;;;;;;;43457;279;3031129;-33
2024/01/13 04:03:10;;;;;;;4.40;2.40;;;;;;;;;;43484;288;3031911;-33
2024/01/13 04:04:57;;;;;;;4.30;2.60;;;;;;;;;;43492;268;3032905;-33
2024/01/13 04:06:43;;;;;;;4.70;2.50;;;;;;;;;;43494;271;3031858;-33
2024/01/13 04:08:28;;;;;;;4.60;2.50;;;;;;;;;;43473;279;3031189;-33
2024/01/13 04:10:14;;;;;;;4.40;2.70;;;;;;;;;;43477;288;3032831;-33
2024/01/13 04:12:01;;;;;;;4.20;2.30;;;;;;;;;;43432;268;3030779;-33
2024/01/13 04:13:47;;;;;;;4.90;2.50;;;;;;;;;;43465;271;3031656;-33
2024/01/13 04:15:34;;;;;;;4.40;2.50;;;;;;;;;;43465;268;3032261;-33
2024/01/13 04:17:20;;;;;;;5.10;2.60;;;;;;;;;;43484;268;3031656;-33
2024/01/13 04:19:08;;;;;;;4.20;2.40;;;;;;;;;;43498;279;3032198;-33
2024/01/13 04:20:53;;;;;;;4.70;2.40;;;;;;;;;;43470;271;3030935;-33
2024/01/13 04:22:51;;;;;;;4.10;2.40;;;;;;;;;;43473;287;3036889;-33
2024/01/13 04:24:36;;;;;;;6.50;2.60;;;;;;;;;;43491;271;3031017;-33
2024/01/13 04:26:23;;;;;;;5.20;2.80;;;;;;;;;;43487;271;3031775;-33
2024/01/13 04:28:08;;;;;;;4.70;2.60;;;;;;;;;;44172;288;3031148;-33
2024/01/13 04:29:53;;;;;;;4.40;2.30;;;;;;;;;;44177;268;3031165;-33
2024/01/13 04:31:37;;;;;;;4.80;2.60;;;;;;;;;;44163;279;3031155;-34
2024/01/13 04:33:22;;;;;;;4.70;2.30;;;;;;;;;;44204;268;3037475;-34
2024/01/13 04:35:08;;;;;;;4.40;2.30;;;;;;;;;;43843;275;3032442;-34
2024/01/13 04:36:53;;;;;;;4.20;2.30;;;;;;;;;;44276;272;3031514;-34
2024/01/13 04:38:38;;;;;;;4.70;2.70;;;;;;;;;;44168;275;3031188;-34
2024/01/13 04:40:22;;;;;;;4.30;2.60;;;;;;;;;;44161;272;3031809;-34
2024/01/13 04:42:08;;;;;;;4.40;2.50;;;;;;;;;;44196;268;3031461;-34
2024/01/13 04:43:52;;;;;;;4.80;2.70;;;;;;;;;;44259;268;3031455;-34
2024/01/13 04:45:36;;;;;;;4.40;2.60;;;;;;;;;;44134;271;3030684;-34
2024/01/13 04:47:21;;;;;;;4.00;2.40;;;;;;;;;;44181;275;3031540;-34
2024/01/13 04:49:06;;;;;;;4.80;2.60;;;;;;;;;;44153;279;3030745;-34
2024/01/13 04:50:51;;;;;;;4.60;2.50;;;;;;;;;;44250;275;3032638;-34
2024/01/13 04:52:36;;;;;;;4.30;2.40;;;;;;;;;;44176;271;3031954;-34
2024/01/13 04:54:21;;;;;;;4.40;2.60;;;;;;;;;;44184;276;3031433;-33
2024/01/13 04:56:06;;;;;;;4.40;2.40;;;;;;;;;;44184;283;3031460;-33
2024/01/13 04:57:51;;;;;;;4.90;2.70;;;;;;;;;;44167;276;3031465;-33
2024/01/13 04:59:36;;;;;;;4.80;2.40;;;;;;;;;;44132;279;3031538;-33
2024/01/13 05:01:20;;;;;;;4.80;2.40;;;;;;;;;;44170;275;3031627;-33
2024/01/13 05:03:05;;;;;;;4.70;2.50;;;;;;;;;;44172;275;3030820;-33
2024/01/13 05:04:50;;;;;;;4.60;2.60;;;;;;;;;;44166;287;3031167;-34
2024/01/13 05:06:35;;;;;;;4.30;2.40;;;;;;;;;;44223;276;3031711;-34
2024/01/13 05:08:20;;;;;;;4.40;2.40;;;;;;;;;;44243;268;3031226;-34
2024/01/13 05:10:05;;;;;;;4.20;2.40;;;;;;;;;;44170;276;3030913;-34
2024/01/13 05:11:50;;;;;;;4.50;2.60;;;;;;;;;;44264;275;3032500;-34
2024/01/13 05:13:34;;;;;;;4.20;2.50;;;;;;;;;;44142;276;3032509;-34
2024/01/13 05:15:21;;;;;;;4.70;2.70;;;;;;;;;;43463;279;3031637;-34
2024/01/13 05:17:07;;;;;;;4.40;2.60;;;;;;;;;;43487;272;3032316;-33
2024/01/13 05:18:53;;;;;;;4.30;2.30;;;;;;;;;;43978;275;3030789;-33
2024/01/13 05:20:42;;;;;;;4.40;2.60;;;;;;;;;;44144;268;3032385;-33
2024/01/13 05:22:32;;;;;;;4.30;2.50;;;;;;;;;;43502;268;3031215;-33
2024/01/13 05:24:18;;;;;;;4.40;2.50;;;;;;;;;;43482;268;3037135;-33
2024/01/13 05:26:05;;;;;;;4.00;2.40;;;;;;;;;;43465;279;3031580;-34
2024/01/13 05:27:49;;;;;;;4.30;2.40;;;;;;;;;;43481;279;3031960;-33
2024/01/13 05:29:34;;;;;;;4.70;2.60;;;;;;;;;;43465;289;3031270;-34
2024/01/13 05:31:19;;;;;;;4.50;2.50;;;;;;;;;;43467;279;3031898;-33
2024/01/13 05:33:07;;;;;;;4.00;2.40;;;;;;;;;;43471;279;3031698;-34
2024/01/13 05:34:52;;;;;;;4.80;2.70;;;;;;;;;;43487;288;3037562;-33
2024/01/13 05:36:39;;;;;;;4.20;2.60;;;;;;;;;;43473;279;3032241;-33
2024/01/13 05:38:27;;;;;;;4.50;2.40;;;;;;;;;;43452;276;3031804;-33
2024/01/13 05:40:16;;;;;;;4.40;2.40;;;;;;;;;;43478;268;3031934;-35
2024/01/13 05:42:01;;;;;;;4.50;2.40;;;;;;;;;;43458;281;3031403;-35
2024/01/13 05:43:47;;;;;;;4.30;2.50;;;;;;;;;;43434;279;3031797;-35
2024/01/13 05:45:37;;;;;;;4.20;2.30;;;;;;;;;;43473;272;3031562;-35
2024/01/13 05:47:29;;;;;;;4.70;2.60;;;;;;;;;;43486;279;3031852;-34
2024/01/13 05:49:17;;;;;;;5.10;2.60;;;;;;;;;;43480;272;3031540;-35
2024/01/13 05:51:03;;;;;;;4.40;2.30;;;;;;;;;;43447;268;3032559;-34
2024/01/13 05:52:48;;;;;;;5.10;2.60;;;;;;;;;;44188;288;3030876;-34
2024/01/13 05:54:33;;;;;;;4.50;2.40;;;;;;;;;;43523;272;3032167;-34
2024/01/13 05:56:20;;;;;;;5.10;2.80;;;;;;;;;;43478;268;3032414;-33
2024/01/13 05:58:07;;;;;;;4.80;2.40;;;;;;;;;;43477;279;3031752;-33
2024/01/13 05:59:52;;;;;;;5.20;2.70;;;;;;;;;;43448;288;3031236;-33
2024/01/13 06:01:38;;;;;;;5.00;2.60;;;;;;;;;;43459;279;3031408;-33
2024/01/13 06:03:23;;;;;;;4.20;2.40;;;;;;;;;;43462;279;3031082;-33
2024/01/13 06:05:10;;;;;;;4.40;2.40;;;;;;;;;;43447;279;3031528;-33
2024/01/13 06:06:56;;;;;;;5.00;2.40;;;;;;;;;;44094;268;3031658;-34
2024/01/13 06:08:41;;;;;;;4.90;2.70;;;;;;;;;;43458;279;3032457;-34
2024/01/13 06:10:28;;;;;;;4.50;2.50;;;;;;;;;;43453;268;3031252;-35
2024/01/13 06:12:15;;;;;;;4.10;2.40;;;;;;;;;;43454;272;3031736;-35
2024/01/13 06:14:01;;;;;;;4.70;2.60;;;;;;;;;;43457;276;3031735;-34
2024/01/13 06:15:48;;;;;;;5.90;2.60;;;;;;;;;;43476;271;3038260;-34
2024/01/13 06:17:38;;;;;;;5.60;2.50;;;;;;;;;;43469;271;3032366;-33
2024/01/13 06:19:25;;;;;;;4.50;2.60;;;;;;;;;;43468;271;3031359;-33
2024/01/13 06:21:12;;;;;;;5.00;2.40;;;;;;;;;;43490;271;3032365;-33
2024/01/13 06:22:58;;;;;;;5.60;2.50;;;;;;;;;;43461;279;3031439;-35
2024/01/13 06:24:43;;;;;;;4.50;2.40;;;;;;;;;;43441;279;3031819;-35
2024/01/13 06:26:29;;;;;;;4.40;2.40;;;;;;;;;;43477;276;3031287;-34
2024/01/13 06:28:19;;;;;;;4.00;2.20;;;;;;;;;;43486;276;3032254;-34
2024/01/13 06:30:07;;;;;;;5.00;2.50;;;;;;;;;;43489;279;3031583;-34
2024/01/13 06:31:51;;;;;;;4.10;2.10;;;;;;;;;;43940;271;3031795;-34
2024/01/13 06:33:37;;;;;;;4.70;2.50;;;;;;;;;;43458;288;3031364;-34
2024/01/13 06:35:29;;;;;;;4.00;2.30;;;;;;;;;;43447;279;3031997;-34
2024/01/13 06:37:17;;;;;;;4.60;2.20;;;;;;;;;;43460;268;3032206;-34
2024/01/13 06:39:08;;;;;;;4.90;2.50;;;;;;;;;;43448;268;3031991;-35
2024/01/13 06:40:56;;;;;;;5.00;2.30;;;;;;;;;;43478;271;3031633;-35
2024/01/13 06:42:43;;;;;;;5.10;2.20;;;;;;;;;;43681;268;3031928;-33
2024/01/13 06:44:29;;;;;;;4.20;2.30;;;;;;;;;;43465;279;3030968;-35
2024/01/13 06:46:27;;;;;;;4.50;2.10;;;;;;;;;;43466;272;3037064;-35
2024/01/13 06:48:13;;;;;;;4.50;2.40;;;;;;;;;;43470;279;3031030;-35
2024/01/13 06:50:02;;;;;;;4.60;2.30;;;;;;;;;;43487;283;3031255;-34
2024/01/13 06:51:47;;;;;;;5.20;2.60;;;;;;;;;;43474;279;3032094;-34
2024/01/13 06:53:33;;;;;;;4.80;2.30;;;;;;;;;;43481;279;3031306;-34
2024/01/13 06:55:23;;;;;;;4.70;2.30;;;;;;;;;;43441;272;3031451;-33
2024/01/13 06:57:09;;;;;;;4.50;2.10;;;;;;;;;;43540;279;3031240;-34
2024/01/13 06:58:54;;;;;;;4.20;2.40;;;;;;;;;;43454;279;3031988;-33
2024/01/13 07:00:41;;;;;;;4.80;2.60;;;;;;;;;;43466;279;3031848;-33
2024/01/13 07:02:25;;;;;;;4.80;2.20;;;;;;;;;;43455;279;3031053;-33
2024/01/13 07:04:18;;;;;;;4.20;2.20;;;;;;;;;;43465;271;3032609;-33
2024/01/13 07:06:06;;;;;;;4.20;2.10;;;;;;;;;;43470;279;3031730;-34
2024/01/13 07:07:51;;;;;;;4.60;2.50;;;;;;;;;;43482;287;3030688;-34
2024/01/13 07:09:36;;;;;;;3.70;2.30;;;;;;;;;;43510;272;3032139;-34
2024/01/13 07:11:22;;;;;;;4.50;2.20;;;;;;;;;;43457;271;3031176;-33
2024/01/13 07:13:09;;;;;;;3.90;2.00;;;;;;;;;;43485;264;3031965;-33
2024/01/13 07:14:56;;;;;;;4.20;2.20;;;;;;;;;;43475;279;3031359;-34
2024/01/13 07:16:46;;;;;;;3.80;2.10;;;;;;;;;;43445;272;3032284;-34
2024/01/13 07:18:33;;;;;;;3.90;2.10;;;;;;;;;;43492;268;3032094;-34
2024/01/13 07:20:18;;;;;;;4.30;2.20;;;;;;;;;;43478;276;3030866;-34
2024/01/13 07:22:05;;;;;;;4.10;2.00;;;;;;;;;;43466;276;3031832;-34
2024/01/13 07:23:52;;;;;;;4.90;2.00;;;;;;;;;;43460;271;3031020;-34
2024/01/13 07:25:39;;;;;;;4.00;2.10;;;;;;;;;;43439;281;3031457;-35
2024/01/13 07:27:28;;;;;;;4.50;2.30;;;;;;;;;;43459;273;3037562;-34
2024/01/13 07:29:15;;;;;;;4.10;2.10;;;;;;;;;;43443;272;3031782;-34
2024/01/13 07:31:01;;;;;;;4.50;2.40;;;;;;;;;;43491;272;3031427;-34
2024/01/13 07:32:47;;;;;;;4.20;2.40;;;;;;;;;;43466;276;3031543;-34
2024/01/13 07:34:35;;;;;;;5.50;2.50;;;;;;;;;;43466;272;3031486;-34
2024/01/13 07:36:20;;;;;;;3.90;2.10;;;;;;;;;;43463;272;3032002;-34
2024/01/13 07:38:08;;;;;;;4.50;2.30;;;;;;;;;;43475;272;3032509;-34
2024/01/13 07:39:54;;;;;;;4.20;2.20;;;;;;;;;;43474;279;3031356;-34
2024/01/13 07:41:39;;;;;;;4.10;2.20;;;;;;;;;;43481;288;3031407;-34
2024/01/13 07:43:27;;;;;;;4.00;2.30;;;;;;;;;;43468;279;3031140;-34
2024/01/13 07:45:14;;;;;;;4.20;2.30;;;;;;;;;;43470;271;3031873;-34
2024/01/13 07:47:01;;;;;;;4.20;2.40;;;;;;;;;;43482;279;3030866;-34
2024/01/13 07:48:45;;;;;;;4.20;2.10;;;;;;;;;;43470;272;3032374;-34
2024/01/13 07:50:32;;;;;;;4.40;2.40;;;;;;;;;;43461;271;3031370;-34
2024/01/13 07:52:17;;;;;;;4.20;2.30;;;;;;;;;;43477;268;3031707;-34
2024/01/13 07:54:02;;;;;;;4.10;2.10;;;;;;;;;;43483;279;3031809;-34
2024/01/13 07:55:47;;;;;;;4.20;2.40;;;;;;;;;;44156;279;3030762;-34
2024/01/13 07:57:32;;;;;;;4.20;2.40;;;;;;;;;;44088;275;3031897;-34
2024/01/13 07:59:19;;;;;;;4.10;2.40;;;;;;;;;;43601;279;3031716;-34
2024/01/13 08:01:07;;;;;;;4.40;2.30;;;;;;;;;;43473;279;3031823;-34
2024/01/13 08:02:54;;;;;;;4.30;2.20;;;;;;;;;;43465;271;3031392;-34
2024/01/13 08:04:38;;;;;;;4.30;2.40;;;;;;;;;;44110;271;3031555;-34
2024/01/13 08:06:24;;;;;;;4.30;2.30;;;;;;;;;;43461;275;3031616;-34
2024/01/13 08:08:10;;;;;;;5.20;2.70;;;;;;;;;;43445;271;3030918;-34
2024/01/13 08:09:54;;;;;;;4.30;2.40;;;;;;;;;;43451;271;3031229;-34
2024/01/13 08:11:39;;;;;;;4.40;2.30;;;;;;;;;;43468;264;3031724;-34
2024/01/13 08:13:30;;;;;;;4.20;2.30;;;;;;;;;;43476;272;3031837;-34
2024/01/13 08:15:19;;;;;;;4.60;2.40;;;;;;;;;;43507;275;3031843;-34
2024/01/13 08:17:08;;;;;;;4.30;2.20;;;;;;;;;;43475;288;3032110;-34
2024/01/13 08:18:54;;;;;;;4.10;2.30;;;;;;;;;;43463;279;3038066;-34
2024/01/13 08:20:40;;;;;;;4.20;2.30;;;;;;;;;;43598;271;3031313;-34
2024/01/13 08:22:26;;;;;;;5.20;2.60;;;;;;;;;;43474;271;3032637;-34
2024/01/13 08:24:12;;;;;;;4.70;2.40;;;;;;;;;;43470;279;3031005;-34
2024/01/13 08:25:59;;;;;;;4.00;2.50;;;;;;;;;;43486;268;3031851;-34
2024/01/13 08:27:45;;;;;;;4.90;2.60;;;;;;;;;;43473;268;3031160;-34
2024/01/13 08:29:31;;;;;;;4.50;2.40;;;;;;;;;;43501;279;3033344;-34
2024/01/13 08:31:20;;;;;;;4.60;2.30;;;;;;;;;;43482;279;3033782;-34
2024/01/13 08:33:21;;;;;;;4.40;2.60;;;;;;;;;;43471;279;3034080;-34
2024/01/13 08:35:08;;;;;;;4.90;2.40;;;;;;;;;;43486;272;3031742;-34
2024/01/13 08:36:52;;;;;;;4.30;2.30;;;;;;;;;;44165;287;3031746;-34
2024/01/13 08:38:37;;;;;;;4.00;2.50;;;;;;;;;;44086;268;3031602;-34
2024/01/13 08:40:22;;;;;;;4.10;2.30;;;;;;;;;;43477;279;3031278;-33
2024/01/13 08:42:08;;;;;;;4.60;2.70;;;;;;;;;;43490;279;3031557;-33
2024/01/13 08:43:52;;;;;;;5.30;2.60;;;;;;;;;;44122;279;3031883;-33
2024/01/13 08:45:37;;;;;;;4.40;2.40;;;;;;;;;;44237;271;3031163;-33
2024/01/13 08:47:23;;;;;;;4.50;2.50;;;;;;;;;;43528;268;3031215;-34
2024/01/13 08:49:09;;;;;;;4.80;2.50;;;;;;;;;;44208;276;3031536;-34
2024/01/13 08:50:54;;;;;;;4.60;2.30;;;;;;;;;;43754;271;3031461;-34
2024/01/13 08:52:39;;;;;;;5.00;2.70;;;;;;;;;;43476;279;3031750;-34
2024/01/13 08:54:25;;;;;;;4.60;2.50;;;;;;;;;;43466;287;3031100;-34
2024/01/13 08:56:11;;;;;;;4.60;2.30;;;;;;;;;;43486;271;3031577;-34
2024/01/13 08:57:57;;;;;;;4.80;2.40;;;;;;;;;;43473;271;3032053;-34
2024/01/13 08:59:43;;;;;;;4.90;2.50;;;;;;;;;;43452;276;3037879;-34
2024/01/13 09:01:31;;;;;;;5.00;2.40;;;;;;;;;;43483;271;3031197;-34
2024/01/13 09:03:22;;;;;;;4.50;2.40;;;;;;;;;;43467;279;3032154;-34
2024/01/13 09:05:09;;;;;;;5.30;2.50;;;;;;;;;;43584;279;3031095;-34
2024/01/13 09:06:53;;;;;;;4.70;2.50;;;;;;;;;;44050;279;3032024;-34
2024/01/13 09:08:38;;;;;;;5.50;2.80;;;;;;;;;;44137;271;3030932;-34
2024/01/13 09:10:24;;;;;;;4.20;2.20;;;;;;;;;;44242;276;3031941;-34
2024/01/13 09:12:10;;;;;;;5.20;2.50;;;;;;;;;;44169;272;3032410;-34
2024/01/13 09:13:54;;;;;;;4.60;2.50;;;;;;;;;;44018;276;3031986;-34
2024/01/13 09:15:39;;;;;;;5.90;2.70;;;;;;;;;;43490;272;3031727;-34
2024/01/13 09:17:24;;;;;;;5.60;2.70;;;;;;;;;;43486;279;3031342;-34
2024/01/13 09:19:09;;;;;;;4.90;2.60;;;;;;;;;;43446;272;3031264;-34
2024/01/13 09:20:55;;;;;;;5.20;2.50;;;;;;;;;;43477;279;3031906;-33
2024/01/13 09:22:41;;;;;;;4.80;2.50;;;;;;;;;;43464;268;3031791;-34
2024/01/13 09:24:26;;;;;;;5.20;2.60;;;;;;;;;;43503;275;3031957;-34
2024/01/13 09:26:11;;;;;;;5.50;2.60;;;;;;;;;;43509;268;3031793;-33
2024/01/13 09:27:57;;;;;;;5.40;2.70;;;;;;;;;;43472;268;3031835;-33
2024/01/13 09:29:42;;;;;;;5.20;2.70;;;;;;;;;;43426;279;3031495;-33
2024/01/13 09:31:35;;;;;;;4.70;2.40;;;;;;;;;;43480;279;3032556;-33
2024/01/13 09:33:25;;;;;;;4.70;2.40;;;;;;;;;;43444;280;3031917;-33
2024/01/13 09:35:12;;;;;;;5.70;2.60;;;;;;;;;;43481;281;3032059;-33
2024/01/13 09:36:57;;;;;;;4.90;2.50;;;;;;;;;;44194;268;3031560;-34
2024/01/13 09:38:41;;;;;;;6.90;2.60;;;;;;;;;;43798;284;3031778;-34
2024/01/13 09:40:29;;;;;;;5.10;2.50;;;;;;;;;;43461;279;3032006;-34
2024/01/13 09:42:40;;;;;;;4.60;2.40;;;;;;;;;;43493;272;3031591;-34
2024/01/13 09:44:28;;;;;;;4.90;2.50;;;;;;;;;;43455;277;3031520;-34
2024/01/13 09:46:13;;;;;;;4.50;2.50;;;;;;;;;;43856;268;3031375;-34
2024/01/13 09:47:59;;;;;;;4.30;2.30;;;;;;;;;;43493;279;3031499;-34
2024/01/13 09:49:47;;;;;;;4.60;2.50;;;;;;;;;;43465;279;3032011;-34
2024/01/13 09:51:35;;;;;;;5.20;2.40;;;;;;;;;;44216;276;3031392;-34
2024/01/13 09:53:29;;;;;;;4.80;2.60;;;;;;;;;;43577;271;3031524;-34
2024/01/13 09:55:17;;;;;;;4.70;2.40;;;;;;;;;;43471;279;3031118;-34
2024/01/13 09:57:02;;;;;;;4.90;2.60;;;;;;;;;;44179;275;3031620;-34
2024/01/13 09:58:47;;;;;;;4.60;2.30;;;;;;;;;;44267;271;3032044;-34
2024/01/13 10:00:34;;;;;;;4.40;2.30;;;;;;;;;;43494;279;3032149;-34
2024/01/13 10:02:21;;;;;;;5.20;2.30;;;;;;;;;;43484;271;3031487;-34
2024/01/13 10:04:13;;;;;;;5.10;2.40;;;;;;;;;;43458;279;3030782;-34
2024/01/13 10:05:59;;;;;;;4.60;2.30;;;;;;;;;;43639;271;3031922;-34
2024/01/13 10:07:53;;;;;;;4.60;2.30;;;;;;;;;;43469;268;3031266;-34
2024/01/13 10:09:38;;;;;;;4.20;2.30;;;;;;;;;;43476;276;3031206;-34
2024/01/13 10:11:25;;;;;;;4.90;2.40;;;;;;;;;;43485;268;3038710;-34
2024/01/13 10:13:17;;;;;;;5.50;2.40;;;;;;;;;;43756;264;3031598;-33
2024/01/13 10:15:15;;;;;;;4.80;2.40;;;;;;;;;;43485;268;3032670;-33
2024/01/13 10:17:05;;;;;;;5.20;2.60;;;;;;;;;;43860;279;3031737;-34
2024/01/13 10:18:51;;;;;;;5.00;2.50;;;;;;;;;;43459;275;3031905;-34
2024/01/13 10:20:38;;;;;;;5.10;2.70;;;;;;;;;;43427;272;3031924;-34
2024/01/13 10:22:25;;;;;;;5.20;2.40;;;;;;;;;;43476;279;3031953;-34
2024/01/13 10:24:11;;;;;;;4.90;2.50;;;;;;;;;;43472;268;3031325;-34
2024/01/13 10:25:56;;;;;;;4.80;2.70;;;;;;;;;;43478;271;3031006;-33
2024/01/13 10:27:45;;;;;;;5.50;2.60;;;;;;;;;;43480;279;3032100;-34
2024/01/13 10:29:33;;;;;;;4.90;2.60;;;;;;;;;;43878;279;3031415;-34
2024/01/13 10:31:20;;;;;;;5.40;2.60;;;;;;;;;;43459;271;3032040;-34